sensor_id;sensor_type;location;lat;lon;timestamp;P1;durP1;ratioP1;P2;durP2;ratioP2
28266;SDS011;15525;45.568;5.448;2023-03-01T00:01:58;51.45;;;24.05;;
28266;SDS011;15525;45.568;5.448;2023-03-01T00:04:24;50.67;;;25.55;;
28266;SDS011;15525;45.568;5.448;2023-03-01T00:06:49;51.10;;;25.27;;
28266;SDS011;15525;45.568;5.448;2023-03-01T00:09:15;52.80;;;25.92;;
28266;SDS011;15525;45.568;5.448;2023-03-01T00:11:41;47.35;;;24.25;;
28266;SDS011;15525;45.568;5.448;2023-03-01T00:14:06;49.03;;;24.48;;
28266;SDS011;15525;45.568;5.448;2023-03-01T00:16:33;45.72;;;23.55;;
28266;SDS011;15525;45.568;5.448;2023-03-01T00:19:00;46.60;;;23.50;;
28266;SDS011;15525;45.568;5.448;2023-03-01T00:21:26;45.78;;;23.50;;
28266;SDS011;15525;45.568;5.448;2023-03-01T00:23:52;47.40;;;23.38;;
28266;SDS011;15525;45.568;5.448;2023-03-01T00:26:18;49.15;;;23.10;;
28266;SDS011;15525;45.568;5.448;2023-03-01T00:28:44;49.38;;;24.10;;
28266;SDS011;15525;45.568;5.448;2023-03-01T00:31:15;47.10;;;23.77;;
28266;SDS011;15525;45.568;5.448;2023-03-01T00:33:42;47.70;;;23.92;;
28266;SDS011;15525;45.568;5.448;2023-03-01T00:36:08;46.95;;;23.50;;
28266;SDS011;15525;45.568;5.448;2023-03-01T00:38:37;48.83;;;24.38;;
28266;SDS011;15525;45.568;5.448;2023-03-01T00:41:07;46.33;;;23.25;;
28266;SDS011;15525;45.568;5.448;2023-03-01T00:43:34;46.25;;;23.38;;
28266;SDS011;15525;45.568;5.448;2023-03-01T00:46:11;48.45;;;23.33;;
28266;SDS011;15525;45.568;5.448;2023-03-01T00:48:38;47.85;;;23.38;;
28266;SDS011;15525;45.568;5.448;2023-03-01T00:51:12;49.00;;;23.40;;
28266;SDS011;15525;45.568;5.448;2023-03-01T00:53:39;46.83;;;23.60;;
28266;SDS011;15525;45.568;5.448;2023-03-01T00:56:05;45.42;;;22.15;;
28266;SDS011;15525;45.568;5.448;2023-03-01T00:58:32;47.58;;;23.17;;
28266;SDS011;15525;45.568;5.448;2023-03-01T01:00:58;48.20;;;23.33;;
28266;SDS011;15525;45.568;5.448;2023-03-01T01:03:24;46.13;;;22.25;;
28266;SDS011;15525;45.568;5.448;2023-03-01T01:05:52;48.05;;;23.33;;
28266;SDS011;15525;45.568;5.448;2023-03-01T01:08:18;48.33;;;23.25;;
28266;SDS011;15525;45.568;5.448;2023-03-01T01:10:45;46.78;;;22.55;;
28266;SDS011;15525;45.568;5.448;2023-03-01T01:13:11;45.47;;;22.83;;
28266;SDS011;15525;45.568;5.448;2023-03-01T01:15:38;48.33;;;23.52;;
28266;SDS011;15525;45.568;5.448;2023-03-01T01:18:04;46.30;;;23.60;;
28266;SDS011;15525;45.568;5.448;2023-03-01T01:20:30;49.80;;;24.42;;
28266;SDS011;15525;45.568;5.448;2023-03-01T01:22:55;45.95;;;23.45;;
28266;SDS011;15525;45.568;5.448;2023-03-01T01:25:21;47.28;;;24.55;;
28266;SDS011;15525;45.568;5.448;2023-03-01T01:27:46;47.67;;;24.20;;
28266;SDS011;15525;45.568;5.448;2023-03-01T01:30:12;50.30;;;23.73;;
28266;SDS011;15525;45.568;5.448;2023-03-01T01:32:37;48.50;;;22.67;;
28266;SDS011;15525;45.568;5.448;2023-03-01T01:35:03;49.95;;;23.98;;
28266;SDS011;15525;45.568;5.448;2023-03-01T01:37:29;47.60;;;23.52;;
28266;SDS011;15525;45.568;5.448;2023-03-01T01:39:59;46.88;;;23.95;;
28266;SDS011;15525;45.568;5.448;2023-03-01T01:42:26;47.83;;;24.00;;
28266;SDS011;15525;45.568;5.448;2023-03-01T01:47:54;50.70;;;23.08;;
28266;SDS011;15525;45.568;5.448;2023-03-01T01:50:25;48.50;;;23.67;;
28266;SDS011;15525;45.568;5.448;2023-03-01T01:52:51;43.70;;;22.98;;
28266;SDS011;15525;45.568;5.448;2023-03-01T01:55:19;44.85;;;23.63;;
28266;SDS011;15525;45.568;5.448;2023-03-01T01:57:49;45.55;;;23.30;;
28266;SDS011;15525;45.568;5.448;2023-03-01T02:00:28;48.53;;;23.65;;
28266;SDS011;15525;45.568;5.448;2023-03-01T02:02:55;46.58;;;23.25;;
28266;SDS011;15525;45.568;5.448;2023-03-01T02:05:26;45.58;;;22.92;;
28266;SDS011;15525;45.568;5.448;2023-03-01T02:07:53;48.67;;;23.77;;
28266;SDS011;15525;45.568;5.448;2023-03-01T02:10:20;52.35;;;25.20;;
28266;SDS011;15525;45.568;5.448;2023-03-01T02:12:48;51.15;;;24.42;;
28266;SDS011;15525;45.568;5.448;2023-03-01T02:15:14;50.53;;;24.88;;
28266;SDS011;15525;45.568;5.448;2023-03-01T02:17:39;47.28;;;24.48;;
28266;SDS011;15525;45.568;5.448;2023-03-01T02:22:51;48.67;;;23.73;;
28266;SDS011;15525;45.568;5.448;2023-03-01T02:25:30;48.17;;;24.13;;
28266;SDS011;15525;45.568;5.448;2023-03-01T02:30:43;48.33;;;23.45;;
28266;SDS011;15525;45.568;5.448;2023-03-01T02:33:32;48.40;;;24.10;;
28266;SDS011;15525;45.568;5.448;2023-03-01T02:36:02;49.30;;;23.65;;
28266;SDS011;15525;45.568;5.448;2023-03-01T02:38:32;48.67;;;24.05;;
28266;SDS011;15525;45.568;5.448;2023-03-01T02:40:57;51.25;;;24.15;;
28266;SDS011;15525;45.568;5.448;2023-03-01T02:43:25;45.83;;;22.92;;
28266;SDS011;15525;45.568;5.448;2023-03-01T02:45:58;48.20;;;23.85;;
28266;SDS011;15525;45.568;5.448;2023-03-01T02:48:38;51.60;;;24.33;;
28266;SDS011;15525;45.568;5.448;2023-03-01T02:56:44;52.13;;;25.05;;
28266;SDS011;15525;45.568;5.448;2023-03-01T02:59:13;48.20;;;23.90;;
28266;SDS011;15525;45.568;5.448;2023-03-01T03:01:41;50.67;;;23.92;;
28266;SDS011;15525;45.568;5.448;2023-03-01T03:04:08;47.63;;;23.77;;
28266;SDS011;15525;45.568;5.448;2023-03-01T03:06:36;50.20;;;24.27;;
28266;SDS011;15525;45.568;5.448;2023-03-01T03:09:02;49.95;;;24.33;;
28266;SDS011;15525;45.568;5.448;2023-03-01T03:11:28;50.42;;;24.23;;
28266;SDS011;15525;45.568;5.448;2023-03-01T03:13:55;51.95;;;24.77;;
28266;SDS011;15525;45.568;5.448;2023-03-01T03:16:21;50.10;;;24.65;;
28266;SDS011;15525;45.568;5.448;2023-03-01T03:18:47;51.42;;;25.17;;
28266;SDS011;15525;45.568;5.448;2023-03-01T03:21:13;53.53;;;25.27;;
28266;SDS011;15525;45.568;5.448;2023-03-01T03:23:39;51.35;;;24.35;;
28266;SDS011;15525;45.568;5.448;2023-03-01T03:26:05;52.15;;;24.05;;
28266;SDS011;15525;45.568;5.448;2023-03-01T03:28:30;53.78;;;26.13;;
28266;SDS011;15525;45.568;5.448;2023-03-01T03:30:59;58.00;;;25.90;;
28266;SDS011;15525;45.568;5.448;2023-03-01T03:33:29;51.58;;;25.10;;
28266;SDS011;15525;45.568;5.448;2023-03-01T03:35:55;50.70;;;24.48;;
28266;SDS011;15525;45.568;5.448;2023-03-01T03:38:20;53.35;;;25.45;;
28266;SDS011;15525;45.568;5.448;2023-03-01T03:40:48;50.47;;;24.15;;
28266;SDS011;15525;45.568;5.448;2023-03-01T03:43:18;51.90;;;25.52;;
28266;SDS011;15525;45.568;5.448;2023-03-01T03:45:46;49.55;;;24.38;;
28266;SDS011;15525;45.568;5.448;2023-03-01T03:48:13;52.78;;;24.73;;
28266;SDS011;15525;45.568;5.448;2023-03-01T03:50:39;54.13;;;25.15;;
28266;SDS011;15525;45.568;5.448;2023-03-01T03:53:07;53.80;;;26.02;;
28266;SDS011;15525;45.568;5.448;2023-03-01T03:55:37;50.42;;;25.20;;
28266;SDS011;15525;45.568;5.448;2023-03-01T03:58:04;53.30;;;25.08;;
28266;SDS011;15525;45.568;5.448;2023-03-01T04:00:35;50.85;;;25.15;;
28266;SDS011;15525;45.568;5.448;2023-03-01T04:03:03;50.05;;;24.55;;
28266;SDS011;15525;45.568;5.448;2023-03-01T04:05:29;51.60;;;24.98;;
28266;SDS011;15525;45.568;5.448;2023-03-01T04:07:55;51.70;;;24.50;;
28266;SDS011;15525;45.568;5.448;2023-03-01T04:10:28;54.53;;;25.30;;
28266;SDS011;15525;45.568;5.448;2023-03-01T04:12:54;50.08;;;24.15;;
28266;SDS011;15525;45.568;5.448;2023-03-01T04:15:23;49.65;;;24.08;;
28266;SDS011;15525;45.568;5.448;2023-03-01T04:17:51;53.22;;;25.40;;
28266;SDS011;15525;45.568;5.448;2023-03-01T04:20:24;51.45;;;24.92;;
28266;SDS011;15525;45.568;5.448;2023-03-01T04:22:53;50.75;;;23.77;;
28266;SDS011;15525;45.568;5.448;2023-03-01T04:25:24;53.85;;;25.13;;
28266;SDS011;15525;45.568;5.448;2023-03-01T04:27:49;52.67;;;25.17;;
28266;SDS011;15525;45.568;5.448;2023-03-01T04:30:15;50.80;;;24.42;;
28266;SDS011;15525;45.568;5.448;2023-03-01T04:32:40;53.33;;;25.42;;
28266;SDS011;15525;45.568;5.448;2023-03-01T04:35:06;58.15;;;26.83;;
28266;SDS011;15525;45.568;5.448;2023-03-01T04:37:32;53.72;;;25.45;;
28266;SDS011;15525;45.568;5.448;2023-03-01T04:39:57;50.38;;;25.13;;
28266;SDS011;15525;45.568;5.448;2023-03-01T04:42:23;50.00;;;24.25;;
28266;SDS011;15525;45.568;5.448;2023-03-01T04:44:48;54.25;;;25.75;;
28266;SDS011;15525;45.568;5.448;2023-03-01T04:47:16;56.45;;;26.63;;
28266;SDS011;15525;45.568;5.448;2023-03-01T04:49:42;53.28;;;25.92;;
28266;SDS011;15525;45.568;5.448;2023-03-01T04:52:07;51.67;;;24.17;;
28266;SDS011;15525;45.568;5.448;2023-03-01T04:54:34;53.35;;;24.73;;
28266;SDS011;15525;45.568;5.448;2023-03-01T04:57:00;54.90;;;25.35;;
28266;SDS011;15525;45.568;5.448;2023-03-01T04:59:27;53.90;;;26.10;;
28266;SDS011;15525;45.568;5.448;2023-03-01T05:01:54;54.53;;;25.42;;
28266;SDS011;15525;45.568;5.448;2023-03-01T05:04:23;57.85;;;25.85;;
28266;SDS011;15525;45.568;5.448;2023-03-01T05:06:49;57.13;;;26.77;;
28266;SDS011;15525;45.568;5.448;2023-03-01T05:09:15;52.60;;;25.67;;
28266;SDS011;15525;45.568;5.448;2023-03-01T05:11:41;58.03;;;27.10;;
28266;SDS011;15525;45.568;5.448;2023-03-01T05:14:06;57.13;;;26.55;;
28266;SDS011;15525;45.568;5.448;2023-03-01T05:16:33;53.33;;;25.67;;
28266;SDS011;15525;45.568;5.448;2023-03-01T05:18:59;55.53;;;25.35;;
28266;SDS011;15525;45.568;5.448;2023-03-01T05:21:25;50.97;;;25.15;;
28266;SDS011;15525;45.568;5.448;2023-03-01T05:23:51;57.38;;;25.55;;
28266;SDS011;15525;45.568;5.448;2023-03-01T05:26:18;50.05;;;24.42;;
28266;SDS011;15525;45.568;5.448;2023-03-01T05:28:46;52.90;;;25.52;;
28266;SDS011;15525;45.568;5.448;2023-03-01T05:31:12;53.53;;;25.30;;
28266;SDS011;15525;45.568;5.448;2023-03-01T05:33:39;52.30;;;24.20;;
28266;SDS011;15525;45.568;5.448;2023-03-01T05:36:06;53.97;;;25.42;;
28266;SDS011;15525;45.568;5.448;2023-03-01T05:38:33;51.60;;;24.25;;
28266;SDS011;15525;45.568;5.448;2023-03-01T05:40:58;57.67;;;25.05;;
28266;SDS011;15525;45.568;5.448;2023-03-01T05:43:24;55.92;;;25.38;;
28266;SDS011;15525;45.568;5.448;2023-03-01T05:45:50;53.95;;;25.58;;
28266;SDS011;15525;45.568;5.448;2023-03-01T05:48:16;55.35;;;25.95;;
28266;SDS011;15525;45.568;5.448;2023-03-01T05:50:42;53.65;;;25.92;;
28266;SDS011;15525;45.568;5.448;2023-03-01T05:53:16;54.75;;;26.27;;
28266;SDS011;15525;45.568;5.448;2023-03-01T05:55:44;55.58;;;26.80;;
28266;SDS011;15525;45.568;5.448;2023-03-01T05:58:13;51.95;;;25.63;;
28266;SDS011;15525;45.568;5.448;2023-03-01T06:00:41;58.45;;;26.10;;
28266;SDS011;15525;45.568;5.448;2023-03-01T06:03:10;62.13;;;27.25;;
28266;SDS011;15525;45.568;5.448;2023-03-01T06:05:37;56.40;;;26.67;;
28266;SDS011;15525;45.568;5.448;2023-03-01T06:08:04;59.55;;;27.10;;
28266;SDS011;15525;45.568;5.448;2023-03-01T06:10:30;52.88;;;25.48;;
28266;SDS011;15525;45.568;5.448;2023-03-01T06:12:55;59.33;;;26.55;;
28266;SDS011;15525;45.568;5.448;2023-03-01T06:15:22;58.25;;;27.00;;
28266;SDS011;15525;45.568;5.448;2023-03-01T06:17:47;55.35;;;26.48;;
28266;SDS011;15525;45.568;5.448;2023-03-01T06:20:14;58.45;;;27.38;;
28266;SDS011;15525;45.568;5.448;2023-03-01T06:22:44;64.28;;;27.67;;
28266;SDS011;15525;45.568;5.448;2023-03-01T06:25:10;69.75;;;26.00;;
28266;SDS011;15525;45.568;5.448;2023-03-01T06:27:37;55.08;;;25.00;;
28266;SDS011;15525;45.568;5.448;2023-03-01T06:30:03;54.92;;;25.83;;
28266;SDS011;15525;45.568;5.448;2023-03-01T06:32:29;59.25;;;27.38;;
28266;SDS011;15525;45.568;5.448;2023-03-01T06:34:56;58.28;;;26.30;;
28266;SDS011;15525;45.568;5.448;2023-03-01T06:37:21;58.63;;;26.17;;
28266;SDS011;15525;45.568;5.448;2023-03-01T06:39:46;57.58;;;26.75;;
28266;SDS011;15525;45.568;5.448;2023-03-01T06:42:12;60.42;;;28.27;;
28266;SDS011;15525;45.568;5.448;2023-03-01T06:44:37;57.97;;;25.70;;
28266;SDS011;15525;45.568;5.448;2023-03-01T06:47:03;57.13;;;26.60;;
28266;SDS011;15525;45.568;5.448;2023-03-01T06:49:29;59.00;;;27.60;;
28266;SDS011;15525;45.568;5.448;2023-03-01T06:51:55;55.88;;;26.52;;
28266;SDS011;15525;45.568;5.448;2023-03-01T06:54:21;61.08;;;27.15;;
28266;SDS011;15525;45.568;5.448;2023-03-01T06:56:47;56.88;;;27.58;;
28266;SDS011;15525;45.568;5.448;2023-03-01T06:59:13;51.70;;;26.02;;
28266;SDS011;15525;45.568;5.448;2023-03-01T07:01:39;60.35;;;27.33;;
28266;SDS011;15525;45.568;5.448;2023-03-01T07:04:05;54.05;;;25.63;;
28266;SDS011;15525;45.568;5.448;2023-03-01T07:06:30;59.10;;;25.80;;
28266;SDS011;15525;45.568;5.448;2023-03-01T07:08:56;58.00;;;26.17;;
28266;SDS011;15525;45.568;5.448;2023-03-01T07:11:21;58.60;;;26.77;;
28266;SDS011;15525;45.568;5.448;2023-03-01T07:13:47;58.42;;;26.65;;
28266;SDS011;15525;45.568;5.448;2023-03-01T07:16:13;60.25;;;26.58;;
28266;SDS011;15525;45.568;5.448;2023-03-01T07:18:39;57.35;;;27.30;;
28266;SDS011;15525;45.568;5.448;2023-03-01T07:21:06;60.80;;;28.13;;
28266;SDS011;15525;45.568;5.448;2023-03-01T07:23:32;62.88;;;27.60;;
28266;SDS011;15525;45.568;5.448;2023-03-01T07:25:58;57.75;;;28.10;;
28266;SDS011;15525;45.568;5.448;2023-03-01T07:28:23;61.25;;;27.23;;
28266;SDS011;15525;45.568;5.448;2023-03-01T07:30:49;60.22;;;27.40;;
28266;SDS011;15525;45.568;5.448;2023-03-01T07:33:15;61.05;;;27.63;;
28266;SDS011;15525;45.568;5.448;2023-03-01T07:35:40;61.28;;;26.90;;
28266;SDS011;15525;45.568;5.448;2023-03-01T07:38:05;59.15;;;26.95;;
28266;SDS011;15525;45.568;5.448;2023-03-01T07:40:31;55.08;;;26.65;;
28266;SDS011;15525;45.568;5.448;2023-03-01T07:42:57;62.47;;;27.92;;
28266;SDS011;15525;45.568;5.448;2023-03-01T07:45:23;60.88;;;27.67;;
28266;SDS011;15525;45.568;5.448;2023-03-01T07:47:52;61.33;;;28.45;;
28266;SDS011;15525;45.568;5.448;2023-03-01T07:50:18;59.67;;;27.75;;
28266;SDS011;15525;45.568;5.448;2023-03-01T07:52:47;62.28;;;28.67;;
28266;SDS011;15525;45.568;5.448;2023-03-01T07:55:14;62.03;;;28.02;;
28266;SDS011;15525;45.568;5.448;2023-03-01T07:57:40;61.67;;;28.92;;
28266;SDS011;15525;45.568;5.448;2023-03-01T08:00:06;59.50;;;27.75;;
28266;SDS011;15525;45.568;5.448;2023-03-01T08:02:32;58.53;;;27.02;;
28266;SDS011;15525;45.568;5.448;2023-03-01T08:04:58;58.70;;;27.50;;
28266;SDS011;15525;45.568;5.448;2023-03-01T08:07:23;58.20;;;26.92;;
28266;SDS011;15525;45.568;5.448;2023-03-01T08:09:48;60.75;;;27.95;;
28266;SDS011;15525;45.568;5.448;2023-03-01T08:12:14;58.42;;;27.85;;
28266;SDS011;15525;45.568;5.448;2023-03-01T08:14:41;57.92;;;27.70;;
28266;SDS011;15525;45.568;5.448;2023-03-01T08:17:07;59.30;;;28.33;;
28266;SDS011;15525;45.568;5.448;2023-03-01T08:19:33;61.22;;;27.52;;
28266;SDS011;15525;45.568;5.448;2023-03-01T08:21:59;62.25;;;27.67;;
28266;SDS011;15525;45.568;5.448;2023-03-01T08:24:26;61.65;;;28.83;;
28266;SDS011;15525;45.568;5.448;2023-03-01T08:26:51;59.40;;;28.92;;
28266;SDS011;15525;45.568;5.448;2023-03-01T08:29:17;61.70;;;27.85;;
28266;SDS011;15525;45.568;5.448;2023-03-01T08:31:43;59.33;;;28.42;;
28266;SDS011;15525;45.568;5.448;2023-03-01T08:34:09;60.15;;;28.83;;
28266;SDS011;15525;45.568;5.448;2023-03-01T08:36:40;61.90;;;27.85;;
28266;SDS011;15525;45.568;5.448;2023-03-01T08:39:08;61.80;;;27.70;;
28266;SDS011;15525;45.568;5.448;2023-03-01T08:41:35;68.15;;;29.67;;
28266;SDS011;15525;45.568;5.448;2023-03-01T08:44:01;64.25;;;28.98;;
28266;SDS011;15525;45.568;5.448;2023-03-01T08:46:27;63.55;;;28.92;;
28266;SDS011;15525;45.568;5.448;2023-03-01T08:48:54;62.47;;;28.30;;
28266;SDS011;15525;45.568;5.448;2023-03-01T08:51:20;60.10;;;28.35;;
28266;SDS011;15525;45.568;5.448;2023-03-01T08:53:47;60.92;;;28.67;;
28266;SDS011;15525;45.568;5.448;2023-03-01T08:56:13;64.72;;;29.77;;
28266;SDS011;15525;45.568;5.448;2023-03-01T08:58:39;66.28;;;29.27;;
28266;SDS011;15525;45.568;5.448;2023-03-01T09:01:11;64.38;;;28.60;;
28266;SDS011;15525;45.568;5.448;2023-03-01T09:03:38;67.70;;;29.50;;
28266;SDS011;15525;45.568;5.448;2023-03-01T09:06:04;63.17;;;28.50;;
28266;SDS011;15525;45.568;5.448;2023-03-01T09:08:34;65.35;;;29.77;;
28266;SDS011;15525;45.568;5.448;2023-03-01T09:11:01;63.83;;;29.05;;
28266;SDS011;15525;45.568;5.448;2023-03-01T09:13:28;62.28;;;28.90;;
28266;SDS011;15525;45.568;5.448;2023-03-01T09:15:56;64.60;;;29.55;;
28266;SDS011;15525;45.568;5.448;2023-03-01T09:18:25;64.13;;;29.33;;
28266;SDS011;15525;45.568;5.448;2023-03-01T09:20:50;63.60;;;29.45;;
28266;SDS011;15525;45.568;5.448;2023-03-01T09:23:16;62.15;;;28.58;;
28266;SDS011;15525;45.568;5.448;2023-03-01T09:25:41;66.57;;;29.95;;
28266;SDS011;15525;45.568;5.448;2023-03-01T09:28:07;65.25;;;28.55;;
28266;SDS011;15525;45.568;5.448;2023-03-01T09:30:32;64.15;;;29.70;;
28266;SDS011;15525;45.568;5.448;2023-03-01T09:32:58;63.92;;;30.23;;
28266;SDS011;15525;45.568;5.448;2023-03-01T09:35:23;62.25;;;30.20;;
28266;SDS011;15525;45.568;5.448;2023-03-01T09:37:48;68.55;;;30.38;;
28266;SDS011;15525;45.568;5.448;2023-03-01T09:40:18;65.10;;;31.00;;
28266;SDS011;15525;45.568;5.448;2023-03-01T09:42:47;66.53;;;31.75;;
28266;SDS011;15525;45.568;5.448;2023-03-01T09:45:43;66.28;;;30.30;;
28266;SDS011;15525;45.568;5.448;2023-03-01T09:48:13;67.30;;;31.10;;
28266;SDS011;15525;45.568;5.448;2023-03-01T09:50:43;63.05;;;29.42;;
28266;SDS011;15525;45.568;5.448;2023-03-01T09:53:15;65.45;;;30.13;;
28266;SDS011;15525;45.568;5.448;2023-03-01T09:55:43;62.85;;;27.98;;
28266;SDS011;15525;45.568;5.448;2023-03-01T10:01:18;62.70;;;30.35;;
28266;SDS011;15525;45.568;5.448;2023-03-01T10:06:30;62.42;;;30.27;;
28266;SDS011;15525;45.568;5.448;2023-03-01T10:08:56;61.97;;;29.13;;
28266;SDS011;15525;45.568;5.448;2023-03-01T10:11:35;67.72;;;31.77;;
28266;SDS011;15525;45.568;5.448;2023-03-01T10:16:40;64.18;;;30.75;;
28266;SDS011;15525;45.568;5.448;2023-03-01T10:19:20;64.55;;;30.33;;
28266;SDS011;15525;45.568;5.448;2023-03-01T10:21:53;65.10;;;29.95;;
28266;SDS011;15525;45.568;5.448;2023-03-01T10:24:19;62.25;;;28.55;;
28266;SDS011;15525;45.568;5.448;2023-03-01T10:29:13;61.50;;;30.13;;
28266;SDS011;15525;45.568;5.448;2023-03-01T10:31:41;63.28;;;30.17;;
28266;SDS011;15525;45.568;5.448;2023-03-01T10:36:37;69.45;;;31.05;;
28266;SDS011;15525;45.568;5.448;2023-03-01T10:39:11;70.88;;;31.48;;
28266;SDS011;15525;45.568;5.448;2023-03-01T10:41:44;64.15;;;29.88;;
28266;SDS011;15525;45.568;5.448;2023-03-01T10:44:38;67.93;;;30.08;;
28266;SDS011;15525;45.568;5.448;2023-03-01T10:49:59;66.43;;;31.00;;
28266;SDS011;15525;45.568;5.448;2023-03-01T10:58:06;65.65;;;30.98;;
28266;SDS011;15525;45.568;5.448;2023-03-01T11:00:46;62.35;;;29.75;;
28266;SDS011;15525;45.568;5.448;2023-03-01T11:03:15;61.83;;;29.42;;
28266;SDS011;15525;45.568;5.448;2023-03-01T11:05:54;61.60;;;30.40;;
28266;SDS011;15525;45.568;5.448;2023-03-01T11:08:35;63.63;;;30.63;;
28266;SDS011;15525;45.568;5.448;2023-03-01T11:11:13;63.70;;;31.80;;
28266;SDS011;15525;45.568;5.448;2023-03-01T11:13:55;65.60;;;31.13;;
28266;SDS011;15525;45.568;5.448;2023-03-01T11:16:41;64.75;;;31.08;;
28266;SDS011;15525;45.568;5.448;2023-03-01T11:24:43;67.57;;;31.92;;
28266;SDS011;15525;45.568;5.448;2023-03-01T11:27:22;67.50;;;31.77;;
28266;SDS011;15525;45.568;5.448;2023-03-01T11:29:50;63.58;;;30.35;;
28266;SDS011;15525;45.568;5.448;2023-03-01T11:32:21;64.20;;;30.83;;
28266;SDS011;15525;45.568;5.448;2023-03-01T11:34:55;69.43;;;31.05;;
28266;SDS011;15525;45.568;5.448;2023-03-01T11:40:10;64.80;;;30.48;;
28266;SDS011;15525;45.568;5.448;2023-03-01T11:42:55;62.60;;;31.05;;
28266;SDS011;15525;45.568;5.448;2023-03-01T11:45:43;65.80;;;30.17;;
28266;SDS011;15525;45.568;5.448;2023-03-01T11:51:05;66.70;;;31.42;;
28266;SDS011;15525;45.568;5.448;2023-03-01T11:53:50;64.32;;;31.73;;
28266;SDS011;15525;45.568;5.448;2023-03-01T11:56:29;62.35;;;31.17;;
28266;SDS011;15525;45.568;5.448;2023-03-01T11:59:03;66.90;;;30.55;;
28266;SDS011;15525;45.568;5.448;2023-03-01T12:01:56;63.08;;;30.48;;
28266;SDS011;15525;45.568;5.448;2023-03-01T12:15:28;60.10;;;29.58;;
28266;SDS011;15525;45.568;5.448;2023-03-01T12:23:30;61.20;;;29.23;;
28266;SDS011;15525;45.568;5.448;2023-03-01T12:49:56;65.85;;;33.33;;
28266;SDS011;15525;45.568;5.448;2023-03-01T12:55:02;68.93;;;35.30;;
28266;SDS011;15525;45.568;5.448;2023-03-01T12:57:36;65.57;;;32.53;;
28266;SDS011;15525;45.568;5.448;2023-03-01T13:06:15;66.50;;;31.67;;
28266;SDS011;15525;45.568;5.448;2023-03-01T13:08:53;64.88;;;31.83;;
28266;SDS011;15525;45.568;5.448;2023-03-01T13:11:25;63.58;;;32.40;;
28266;SDS011;15525;45.568;5.448;2023-03-01T13:13:51;61.97;;;30.33;;
28266;SDS011;15525;45.568;5.448;2023-03-01T13:16:20;60.83;;;31.17;;
28266;SDS011;15525;45.568;5.448;2023-03-01T13:19:09;57.72;;;30.05;;
28266;SDS011;15525;45.568;5.448;2023-03-01T13:21:40;56.72;;;29.50;;
28266;SDS011;15525;45.568;5.448;2023-03-01T13:24:52;59.83;;;30.83;;
28266;SDS011;15525;45.568;5.448;2023-03-01T13:29:48;66.50;;;32.35;;
28266;SDS011;15525;45.568;5.448;2023-03-01T13:32:25;61.75;;;31.17;;
28266;SDS011;15525;45.568;5.448;2023-03-01T13:35:03;61.33;;;31.05;;
28266;SDS011;15525;45.568;5.448;2023-03-01T13:37:45;68.38;;;33.05;;
28266;SDS011;15525;45.568;5.448;2023-03-01T13:42:51;66.60;;;33.67;;
28266;SDS011;15525;45.568;5.448;2023-03-01T13:45:24;67.07;;;34.38;;
28266;SDS011;15525;45.568;5.448;2023-03-01T13:47:58;65.43;;;34.42;;
28266;SDS011;15525;45.568;5.448;2023-03-01T13:50:28;64.50;;;32.60;;
28266;SDS011;15525;45.568;5.448;2023-03-01T13:53:00;66.65;;;34.05;;
28266;SDS011;15525;45.568;5.448;2023-03-01T13:58:04;63.95;;;32.00;;
28266;SDS011;15525;45.568;5.448;2023-03-01T14:00:43;66.57;;;33.25;;
28266;SDS011;15525;45.568;5.448;2023-03-01T14:03:13;65.75;;;33.35;;
28266;SDS011;15525;45.568;5.448;2023-03-01T14:05:57;67.07;;;32.88;;
28266;SDS011;15525;45.568;5.448;2023-03-01T14:08:26;65.30;;;32.75;;
28266;SDS011;15525;45.568;5.448;2023-03-01T14:11:01;70.50;;;34.42;;
28266;SDS011;15525;45.568;5.448;2023-03-01T14:17:00;68.43;;;33.50;;
28266;SDS011;15525;45.568;5.448;2023-03-01T14:19:47;68.60;;;32.53;;
28266;SDS011;15525;45.568;5.448;2023-03-01T14:22:22;68.32;;;32.85;;
28266;SDS011;15525;45.568;5.448;2023-03-01T14:24:51;62.60;;;32.80;;
28266;SDS011;15525;45.568;5.448;2023-03-01T14:27:19;70.03;;;33.58;;
28266;SDS011;15525;45.568;5.448;2023-03-01T14:29:53;66.43;;;31.85;;
28266;SDS011;15525;45.568;5.448;2023-03-01T14:32:23;65.57;;;31.23;;
28266;SDS011;15525;45.568;5.448;2023-03-01T14:34:51;65.53;;;32.45;;
28266;SDS011;15525;45.568;5.448;2023-03-01T14:37:27;62.30;;;31.65;;
28266;SDS011;15525;45.568;5.448;2023-03-01T14:39:53;68.45;;;33.20;;
28266;SDS011;15525;45.568;5.448;2023-03-01T14:42:19;64.35;;;32.33;;
28266;SDS011;15525;45.568;5.448;2023-03-01T14:44:47;66.18;;;32.67;;
28266;SDS011;15525;45.568;5.448;2023-03-01T14:47:19;66.82;;;32.45;;
28266;SDS011;15525;45.568;5.448;2023-03-01T14:49:54;68.03;;;33.35;;
28266;SDS011;15525;45.568;5.448;2023-03-01T14:52:25;69.88;;;33.83;;
28266;SDS011;15525;45.568;5.448;2023-03-01T14:54:59;68.07;;;33.53;;
28266;SDS011;15525;45.568;5.448;2023-03-01T14:57:25;66.05;;;33.83;;
28266;SDS011;15525;45.568;5.448;2023-03-01T14:59:52;62.65;;;32.08;;
28266;SDS011;15525;45.568;5.448;2023-03-01T15:02:20;64.72;;;33.15;;
28266;SDS011;15525;45.568;5.448;2023-03-01T15:04:49;70.38;;;33.75;;
28266;SDS011;15525;45.568;5.448;2023-03-01T15:07:27;70.63;;;34.58;;
28266;SDS011;15525;45.568;5.448;2023-03-01T15:09:56;66.35;;;33.70;;
28266;SDS011;15525;45.568;5.448;2023-03-01T15:14:55;66.05;;;33.47;;
28266;SDS011;15525;45.568;5.448;2023-03-01T15:17:26;68.43;;;34.05;;
28266;SDS011;15525;45.568;5.448;2023-03-01T15:20:00;67.85;;;33.65;;
28266;SDS011;15525;45.568;5.448;2023-03-01T15:22:30;71.78;;;35.33;;
28266;SDS011;15525;45.568;5.448;2023-03-01T15:24:55;71.78;;;35.53;;
28266;SDS011;15525;45.568;5.448;2023-03-01T15:27:22;67.90;;;34.63;;
28266;SDS011;15525;45.568;5.448;2023-03-01T15:29:54;69.97;;;33.50;;
28266;SDS011;15525;45.568;5.448;2023-03-01T15:34:53;66.63;;;32.20;;
28266;SDS011;15525;45.568;5.448;2023-03-01T15:37:36;65.47;;;34.08;;
28266;SDS011;15525;45.568;5.448;2023-03-01T15:40:18;67.68;;;32.75;;
28266;SDS011;15525;45.568;5.448;2023-03-01T15:43:06;72.47;;;35.38;;
28266;SDS011;15525;45.568;5.448;2023-03-01T15:45:57;63.75;;;33.08;;
28266;SDS011;15525;45.568;5.448;2023-03-01T15:48:23;68.43;;;33.13;;
28266;SDS011;15525;45.568;5.448;2023-03-01T15:50:54;67.18;;;33.30;;
28266;SDS011;15525;45.568;5.448;2023-03-01T15:53:22;66.70;;;34.20;;
28266;SDS011;15525;45.568;5.448;2023-03-01T15:55:48;67.00;;;33.25;;
28266;SDS011;15525;45.568;5.448;2023-03-01T15:58:16;63.38;;;32.25;;
28266;SDS011;15525;45.568;5.448;2023-03-01T16:00:44;72.93;;;33.42;;
28266;SDS011;15525;45.568;5.448;2023-03-01T16:03:10;64.88;;;32.30;;
28266;SDS011;15525;45.568;5.448;2023-03-01T16:05:37;67.47;;;33.22;;
28266;SDS011;15525;45.568;5.448;2023-03-01T16:08:03;65.95;;;32.35;;
28266;SDS011;15525;45.568;5.448;2023-03-01T16:10:34;68.78;;;33.70;;
28266;SDS011;15525;45.568;5.448;2023-03-01T16:13:00;65.65;;;32.78;;
28266;SDS011;15525;45.568;5.448;2023-03-01T16:15:26;67.95;;;33.90;;
28266;SDS011;15525;45.568;5.448;2023-03-01T16:17:53;67.60;;;33.50;;
28266;SDS011;15525;45.568;5.448;2023-03-01T16:20:19;68.25;;;32.78;;
28266;SDS011;15525;45.568;5.448;2023-03-01T16:22:45;67.65;;;33.00;;
28266;SDS011;15525;45.568;5.448;2023-03-01T16:25:12;67.00;;;33.22;;